sensor_id;sensor_type;location;lat;lon;timestamp;pressure;altitude;pressure_sealevel;temperature;humidity
71239;BME280;61342;51.442;7.370;2023-05-10T00:00:37;99251.91;;;16.09;100.00
71239;BME280;61342;51.442;7.370;2023-05-10T00:01:37;99242.50;;;16.01;100.00
71239;BME280;61342;51.442;7.370;2023-05-10T00:02:38;99251.19;;;16.01;100.00
71239;BME280;61342;51.442;7.370;2023-05-10T00:03:38;99242.13;;;15.97;100.00
71239;BME280;61342;51.442;7.370;2023-05-10T00:04:39;99247.00;;;15.95;100.00
71239;BME280;61342;51.442;7.370;2023-05-10T00:05:40;99242.78;;;15.88;100.00
71239;BME280;61342;51.442;7.370;2023-05-10T00:06:40;99240.13;;;15.83;100.00
71239;BME280;61342;51.442;7.370;2023-05-10T00:07:41;99246.50;;;15.81;100.00
71239;BME280;61342;51.442;7.370;2023-05-10T00:08:45;99244.81;;;15.78;100.00
71239;BME280;61342;51.442;7.370;2023-05-10T00:09:45;99237.88;;;15.74;100.00
71239;BME280;61342;51.442;7.370;2023-05-10T00:10:45;99255.25;;;15.74;100.00
71239;BME280;61342;51.442;7.370;2023-05-10T00:11:46;99246.03;;;15.68;100.00
71239;BME280;61342;51.442;7.370;2023-05-10T00:12:46;99247.22;;;15.65;100.00
71239;BME280;61342;51.442;7.370;2023-05-10T00:13:47;99259.38;;;15.63;100.00
71239;BME280;61342;51.442;7.370;2023-05-10T00:14:47;99251.13;;;15.60;100.00
71239;BME280;61342;51.442;7.370;2023-05-10T00:15:47;99252.88;;;15.56;100.00
71239;BME280;61342;51.442;7.370;2023-05-10T00:16:48;99253.28;;;15.52;100.00
71239;BME280;61342;51.442;7.370;2023-05-10T00:17:48;99256.41;;;15.47;100.00
71239;BME280;61342;51.442;7.370;2023-05-10T00:18:49;99252.72;;;15.46;100.00
71239;BME280;61342;51.442;7.370;2023-05-10T00:19:49;99247.91;;;15.41;100.00
71239;BME280;61342;51.442;7.370;2023-05-10T00:20:49;99249.31;;;15.40;100.00
71239;BME280;61342;51.442;7.370;2023-05-10T00:21:50;99243.91;;;15.37;100.00
71239;BME280;61342;51.442;7.370;2023-05-10T00:22:50;99245.25;;;15.36;100.00
71239;BME280;61342;51.442;7.370;2023-05-10T00:23:51;99247.41;;;15.35;100.00
71239;BME280;61342;51.442;7.370;2023-05-10T00:24:51;99244.31;;;15.33;100.00
71239;BME280;61342;51.442;7.370;2023-05-10T00:25:51;99244.88;;;15.32;100.00
71239;BME280;61342;51.442;7.370;2023-05-10T00:26:52;99247.19;;;15.33;100.00
71239;BME280;61342;51.442;7.370;2023-05-10T00:27:52;99253.34;;;15.37;100.00
71239;BME280;61342;51.442;7.370;2023-05-10T00:28:55;99250.44;;;15.45;100.00
71239;BME280;61342;51.442;7.370;2023-05-10T00:29:55;99236.13;;;15.47;100.00
71239;BME280;61342;51.442;7.370;2023-05-10T00:30:56;99254.38;;;15.64;100.00
71239;BME280;61342;51.442;7.370;2023-05-10T00:31:56;99233.69;;;15.67;100.00
71239;BME280;61342;51.442;7.370;2023-05-10T00:32:56;99243.22;;;15.85;100.00
71239;BME280;61342;51.442;7.370;2023-05-10T00:33:57;99245.28;;;15.92;100.00
71239;BME280;61342;51.442;7.370;2023-05-10T00:34:57;99248.38;;;15.94;100.00
71239;BME280;61342;51.442;7.370;2023-05-10T00:35:57;99250.06;;;15.97;100.00
71239;BME280;61342;51.442;7.370;2023-05-10T00:36:58;99236.78;;;15.94;100.00
71239;BME280;61342;51.442;7.370;2023-05-10T00:37:58;99241.19;;;15.95;100.00
71239;BME280;61342;51.442;7.370;2023-05-10T00:38:59;99239.69;;;15.94;100.00
71239;BME280;61342;51.442;7.370;2023-05-10T00:39:59;99249.72;;;15.93;100.00
71239;BME280;61342;51.442;7.370;2023-05-10T00:41:00;99249.38;;;15.89;100.00
71239;BME280;61342;51.442;7.370;2023-05-10T00:42:01;99244.72;;;15.86;100.00
71239;BME280;61342;51.442;7.370;2023-05-10T00:43:01;99245.91;;;15.83;100.00
71239;BME280;61342;51.442;7.370;2023-05-10T00:44:02;99248.66;;;15.81;100.00
71239;BME280;61342;51.442;7.370;2023-05-10T00:45:03;99246.91;;;15.78;100.00
71239;BME280;61342;51.442;7.370;2023-05-10T00:46:04;99239.41;;;15.75;100.00
71239;BME280;61342;51.442;7.370;2023-05-10T00:47:04;99245.44;;;15.69;100.00
71239;BME280;61342;51.442;7.370;2023-05-10T00:48:05;99251.81;;;15.68;100.00
71239;BME280;61342;51.442;7.370;2023-05-10T00:49:06;99250.13;;;15.65;100.00
71239;BME280;61342;51.442;7.370;2023-05-10T00:50:07;99249.16;;;15.62;100.00
71239;BME280;61342;51.442;7.370;2023-05-10T00:51:07;99245.31;;;15.60;100.00
71239;BME280;61342;51.442;7.370;2023-05-10T00:52:08;99255.94;;;15.57;100.00
71239;BME280;61342;51.442;7.370;2023-05-10T00:53:09;99250.56;;;15.54;100.00
71239;BME280;61342;51.442;7.370;2023-05-10T00:54:14;99251.56;;;15.49;100.00
71239;BME280;61342;51.442;7.370;2023-05-10T00:55:15;99258.13;;;15.50;100.00
71239;BME280;61342;51.442;7.370;2023-05-10T00:56:15;99245.44;;;15.38;100.00
71239;BME280;61342;51.442;7.370;2023-05-10T00:57:16;99251.00;;;15.43;100.00
71239;BME280;61342;51.442;7.370;2023-05-10T00:58:17;99255.25;;;15.42;100.00
71239;BME280;61342;51.442;7.370;2023-05-10T00:59:18;99252.97;;;15.41;100.00
71239;BME280;61342;51.442;7.370;2023-05-10T01:00:19;99253.00;;;15.33;100.00
71239;BME280;61342;51.442;7.370;2023-05-10T01:01:19;99249.53;;;15.35;100.00
71239;BME280;61342;51.442;7.370;2023-05-10T01:02:20;99257.44;;;15.34;100.00
71239;BME280;61342;51.442;7.370;2023-05-10T01:03:20;99233.00;;;15.20;100.00
71239;BME280;61342;51.442;7.370;2023-05-10T01:04:21;99254.97;;;15.31;100.00
71239;BME280;61342;51.442;7.370;2023-05-10T01:05:25;99245.31;;;15.28;100.00
71239;BME280;61342;51.442;7.370;2023-05-10T01:06:27;99245.13;;;15.26;100.00
71239;BME280;61342;51.442;7.370;2023-05-10T01:07:27;99255.16;;;15.25;100.00
71239;BME280;61342;51.442;7.370;2023-05-10T01:08:28;99247.84;;;15.24;100.00
71239;BME280;61342;51.442;7.370;2023-05-10T01:09:29;99247.06;;;15.24;100.00
71239;BME280;61342;51.442;7.370;2023-05-10T01:10:30;99242.06;;;15.24;100.00
71239;BME280;61342;51.442;7.370;2023-05-10T01:11:31;99257.88;;;15.23;100.00
71239;BME280;61342;51.442;7.370;2023-05-10T01:12:32;99245.91;;;15.19;100.00
71239;BME280;61342;51.442;7.370;2023-05-10T01:13:35;99253.28;;;15.20;100.00
71239;BME280;61342;51.442;7.370;2023-05-10T01:14:37;99254.59;;;15.19;100.00
71239;BME280;61342;51.442;7.370;2023-05-10T01:15:38;99252.28;;;15.18;100.00
71239;BME280;61342;51.442;7.370;2023-05-10T01:16:40;99251.31;;;15.15;100.00
71239;BME280;61342;51.442;7.370;2023-05-10T01:17:42;99243.81;;;15.12;100.00
71239;BME280;61342;51.442;7.370;2023-05-10T01:18:44;99247.09;;;15.16;100.00
71239;BME280;61342;51.442;7.370;2023-05-10T01:19:44;99257.47;;;15.19;100.00
71239;BME280;61342;51.442;7.370;2023-05-10T01:20:46;99246.66;;;15.27;100.00
71239;BME280;61342;51.442;7.370;2023-05-10T01:23:52;99256.78;;;15.51;100.00
71239;BME280;61342;51.442;7.370;2023-05-10T01:24:53;99253.03;;;15.65;100.00
71239;BME280;61342;51.442;7.370;2023-05-10T01:29:17;99254.44;;;15.81;100.00
71239;BME280;61342;51.442;7.370;2023-05-10T01:32:36;99266.84;;;15.74;100.00
71239;BME280;61342;51.442;7.370;2023-05-10T01:34:02;99261.88;;;15.67;100.00
71239;BME280;61342;51.442;7.370;2023-05-10T01:35:12;99260.31;;;15.66;100.00
71239;BME280;61342;51.442;7.370;2023-05-10T01:36:29;99262.09;;;15.61;100.00
71239;BME280;61342;51.442;7.370;2023-05-10T01:40:48;99264.28;;;15.54;100.00
71239;BME280;61342;51.442;7.370;2023-05-10T01:43:13;99267.19;;;15.54;100.00
71239;BME280;61342;51.442;7.370;2023-05-10T01:45:43;99271.66;;;15.47;100.00
71239;BME280;61342;51.442;7.370;2023-05-10T01:46:48;99272.03;;;15.51;100.00
71239;BME280;61342;51.442;7.370;2023-05-10T01:48:01;99276.25;;;15.50;100.00
71239;BME280;61342;51.442;7.370;2023-05-10T01:49:29;99274.00;;;15.41;100.00
71239;BME280;61342;51.442;7.370;2023-05-10T01:50:32;99269.94;;;15.44;100.00
71239;BME280;61342;51.442;7.370;2023-05-10T01:51:54;99268.19;;;15.41;100.00
71239;BME280;61342;51.442;7.370;2023-05-10T01:53:00;99279.97;;;15.43;100.00
71239;BME280;61342;51.442;7.370;2023-05-10T01:54:03;99259.34;;;15.39;100.00
71239;BME280;61342;51.442;7.370;2023-05-10T01:55:08;99275.53;;;15.42;100.00
71239;BME280;61342;51.442;7.370;2023-05-10T01:56:10;99265.13;;;15.39;100.00
71239;BME280;61342;51.442;7.370;2023-05-10T01:57:13;99272.09;;;15.36;100.00
71239;BME280;61342;51.442;7.370;2023-05-10T01:58:20;99274.41;;;15.38;100.00
71239;BME280;61342;51.442;7.370;2023-05-10T01:59:21;99274.03;;;15.34;100.00
71239;BME280;61342;51.442;7.370;2023-05-10T02:00:23;99265.94;;;15.32;100.00
71239;BME280;61342;51.442;7.370;2023-05-10T02:01:24;99266.53;;;15.31;100.00
71239;BME280;61342;51.442;7.370;2023-05-10T02:02:27;99266.72;;;15.25;100.00
71239;BME280;61342;51.442;7.370;2023-05-10T02:03:30;99268.13;;;15.24;100.00
71239;BME280;61342;51.442;7.370;2023-05-10T02:04:33;99265.59;;;15.28;100.00
71239;BME280;61342;51.442;7.370;2023-05-10T02:05:36;99264.78;;;15.35;100.00
71239;BME280;61342;51.442;7.370;2023-05-10T02:06:38;99258.38;;;15.37;100.00
71239;BME280;61342;51.442;7.370;2023-05-10T02:07:40;99273.56;;;15.52;100.00
71239;BME280;61342;51.442;7.370;2023-05-10T02:08:42;99272.75;;;15.59;100.00
71239;BME280;61342;51.442;7.370;2023-05-10T02:09:45;99273.81;;;15.71;100.00
71239;BME280;61342;51.442;7.370;2023-05-10T02:10:51;99284.03;;;15.79;100.00
71239;BME280;61342;51.442;7.370;2023-05-10T02:11:53;99277.03;;;15.82;100.00
71239;BME280;61342;51.442;7.370;2023-05-10T02:12:58;99283.00;;;15.84;100.00
71239;BME280;61342;51.442;7.370;2023-05-10T02:14:00;99277.22;;;15.84;100.00
71239;BME280;61342;51.442;7.370;2023-05-10T02:15:04;99280.69;;;15.83;100.00
71239;BME280;61342;51.442;7.370;2023-05-10T02:16:05;99277.44;;;15.79;100.00
71239;BME280;61342;51.442;7.370;2023-05-10T02:17:07;99281.53;;;15.76;100.00
71239;BME280;61342;51.442;7.370;2023-05-10T02:18:09;99281.16;;;15.72;100.00
71239;BME280;61342;51.442;7.370;2023-05-10T02:19:11;99282.16;;;15.67;100.00
71239;BME280;61342;51.442;7.370;2023-05-10T02:20:14;99284.09;;;15.64;100.00
71239;BME280;61342;51.442;7.370;2023-05-10T02:21:16;99283.16;;;15.62;100.00
71239;BME280;61342;51.442;7.370;2023-05-10T02:22:18;99276.63;;;15.54;100.00
71239;BME280;61342;51.442;7.370;2023-05-10T02:23:20;99280.31;;;15.55;100.00
71239;BME280;61342;51.442;7.370;2023-05-10T02:24:21;99289.22;;;15.49;100.00
71239;BME280;61342;51.442;7.370;2023-05-10T02:25:25;99274.94;;;15.44;100.00
71239;BME280;61342;51.442;7.370;2023-05-10T02:26:26;99282.13;;;15.43;100.00
71239;BME280;61342;51.442;7.370;2023-05-10T02:27:28;99275.97;;;15.39;100.00
71239;BME280;61342;51.442;7.370;2023-05-10T02:28:29;99277.91;;;15.36;100.00
71239;BME280;61342;51.442;7.370;2023-05-10T02:29:31;99281.19;;;15.33;100.00
71239;BME280;61342;51.442;7.370;2023-05-10T02:30:34;99286.03;;;15.30;100.00
71239;BME280;61342;51.442;7.370;2023-05-10T02:31:35;99283.72;;;15.29;100.00
71239;BME280;61342;51.442;7.370;2023-05-10T02:32:36;99293.00;;;15.27;100.00
71239;BME280;61342;51.442;7.370;2023-05-10T02:33:39;99285.28;;;15.22;100.00
71239;BME280;61342;51.442;7.370;2023-05-10T02:34:40;99284.53;;;15.14;100.00
71239;BME280;61342;51.442;7.370;2023-05-10T02:35:41;99291.44;;;15.19;100.00
71239;BME280;61342;51.442;7.370;2023-05-10T02:36:42;99284.53;;;15.14;100.00
71239;BME280;61342;51.442;7.370;2023-05-10T02:37:43;99287.25;;;15.12;100.00
71239;BME280;61342;51.442;7.370;2023-05-10T02:38:45;99285.50;;;15.09;100.00
71239;BME280;61342;51.442;7.370;2023-05-10T02:39:48;99291.88;;;15.08;100.00
71239;BME280;61342;51.442;7.370;2023-05-10T02:40:50;99291.88;;;15.08;100.00
71239;BME280;61342;51.442;7.370;2023-05-10T02:41:52;99291.72;;;15.06;100.00
71239;BME280;61342;51.442;7.370;2023-05-10T02:42:54;99298.09;;;15.04;100.00
71239;BME280;61342;51.442;7.370;2023-05-10T02:43:59;99294.41;;;15.04;100.00
71239;BME280;61342;51.442;7.370;2023-05-10T02:45:03;99302.13;;;15.01;100.00
71239;BME280;61342;51.442;7.370;2023-05-10T02:46:05;99301.38;;;15.01;100.00
71239;BME280;61342;51.442;7.370;2023-05-10T02:47:05;99301.75;;;14.98;100.00
71239;BME280;61342;51.442;7.370;2023-05-10T02:48:06;99301.56;;;14.96;100.00
71239;BME280;61342;51.442;7.370;2023-05-10T02:49:06;99301.22;;;14.92;100.00
71239;BME280;61342;51.442;7.370;2023-05-10T02:50:07;99299.81;;;14.93;100.00
71239;BME280;61342;51.442;7.370;2023-05-10T02:51:09;99306.41;;;14.93;100.00
71239;BME280;61342;51.442;7.370;2023-05-10T02:52:16;99300.41;;;14.91;100.00
71239;BME280;61342;51.442;7.370;2023-05-10T02:53:22;99300.03;;;14.87;100.00
71239;BME280;61342;51.442;7.370;2023-05-10T02:54:29;99306.19;;;14.91;100.00
71239;BME280;61342;51.442;7.370;2023-05-10T02:55:35;99304.66;;;14.98;100.00
71239;BME280;61342;51.442;7.370;2023-05-10T02:56:40;99306.19;;;15.06;100.00
71239;BME280;61342;51.442;7.370;2023-05-10T02:57:51;99305.75;;;15.17;100.00
71239;BME280;61342;51.442;7.370;2023-05-10T02:58:52;99300.50;;;15.30;100.00
71239;BME280;61342;51.442;7.370;2023-05-10T02:59:52;99296.78;;;15.37;100.00
71239;BME280;61342;51.442;7.370;2023-05-10T03:00:53;99304.09;;;15.46;100.00
71239;BME280;61342;51.442;7.370;2023-05-10T03:01:54;99302.16;;;15.48;100.00
71239;BME280;61342;51.442;7.370;2023-05-10T03:02:54;99306.63;;;15.49;100.00
71239;BME280;61342;51.442;7.370;2023-05-10T03:03:55;99305.22;;;15.50;100.00
71239;BME280;61342;51.442;7.370;2023-05-10T03:04:55;99300.63;;;15.47;100.00
71239;BME280;61342;51.442;7.370;2023-05-10T03:05:56;99300.44;;;15.45;100.00
71239;BME280;61342;51.442;7.370;2023-05-10T03:06:58;99295.81;;;15.42;100.00
71239;BME280;61342;51.442;7.370;2023-05-10T03:07:59;99303.53;;;15.40;100.00
71239;BME280;61342;51.442;7.370;2023-05-10T03:09:01;99302.59;;;15.37;100.00
71239;BME280;61342;51.442;7.370;2023-05-10T03:10:03;99302.59;;;15.37;100.00
71239;BME280;61342;51.442;7.370;2023-05-10T03:16:00;99311.94;;;15.13;100.00
71239;BME280;61342;51.442;7.370;2023-05-10T03:17:31;99317.34;;;15.09;100.00
71239;BME280;61342;51.442;7.370;2023-05-10T03:19:55;99307.53;;;14.98;100.00
71239;BME280;61342;51.442;7.370;2023-05-10T03:20:59;99303.09;;;14.97;100.00
71239;BME280;61342;51.442;7.370;2023-05-10T03:22:05;99307.38;;;14.96;100.00
71239;BME280;61342;51.442;7.370;2023-05-10T03:24:22;99302.56;;;14.91;100.00
71239;BME280;61342;51.442;7.370;2023-05-10T03:25:23;99314.50;;;14.87;100.00
71239;BME280;61342;51.442;7.370;2023-05-10T03:26:26;99304.88;;;14.85;100.00
71239;BME280;61342;51.442;7.370;2023-05-10T03:27:27;99314.34;;;14.85;100.00
71239;BME280;61342;51.442;7.370;2023-05-10T03:28:28;99311.06;;;14.81;100.00
71239;BME280;61342;51.442;7.370;2023-05-10T03:29:31;99314.72;;;14.82;100.00
71239;BME280;61342;51.442;7.370;2023-05-10T03:30:33;99305.50;;;14.76;100.00
71239;BME280;61342;51.442;7.370;2023-05-10T03:31:35;99318.59;;;14.77;100.00
71239;BME280;61342;51.442;7.370;2023-05-10T03:32:35;99314.16;;;14.76;100.00
71239;BME280;61342;51.442;7.370;2023-05-10T03:33:45;99323.22;;;14.72;100.00
71239;BME280;61342;51.442;7.370;2023-05-10T03:34:46;99320.34;;;14.72;100.00
71239;BME280;61342;51.442;7.370;2023-05-10T03:35:46;99321.69;;;14.71;100.00
71239;BME280;61342;51.442;7.370;2023-05-10T03:36:47;99326.72;;;14.71;100.00
71239;BME280;61342;51.442;7.370;2023-05-10T03:37:47;99328.06;;;14.70;100.00
71239;BME280;61342;51.442;7.370;2023-05-10T03:38:47;99323.63;;;14.69;100.00
71239;BME280;61342;51.442;7.370;2023-05-10T03:39:48;99329.97;;;14.67;100.00
71239;BME280;61342;51.442;7.370;2023-05-10T03:40:48;99321.50;;;14.69;100.00
71239;BME280;61342;51.442;7.370;2023-05-10T03:41:49;99329.41;;;14.69;100.00
71239;BME280;61342;51.442;7.370;2023-05-10T03:42:49;99326.72;;;14.71;100.00
71239;BME280;61342;51.442;7.370;2023-05-10T03:43:50;99328.44;;;14.74;100.00
71239;BME280;61342;51.442;7.370;2023-05-10T03:44:50;99322.28;;;14.70;100.00
71239;BME280;61342;51.442;7.370;2023-05-10T03:45:50;99328.63;;;14.76;100.00
71239;BME280;61342;51.442;7.370;2023-05-10T03:46:51;99331.91;;;14.80;100.00
71239;BME280;61342;51.442;7.370;2023-05-10T03:47:51;99330.91;;;14.85;100.00
71239;BME280;61342;51.442;7.370;2023-05-10T03:48:52;99335.72;;;14.90;100.00
71239;BME280;61342;51.442;7.370;2023-05-10T03:49:52;99328.97;;;14.95;100.00
71239;BME280;61342;51.442;7.370;2023-05-10T03:50:52;99336.66;;;15.07;100.00
71239;BME280;61342;51.442;7.370;2023-05-10T03:51:53;99333.94;;;15.16;100.00
71239;BME280;61342;51.442;7.370;2023-05-10T03:52:53;99330.06;;;15.29;100.00
71239;BME280;61342;51.442;7.370;2023-05-10T03:53:54;99328.63;;;15.45;100.00
71239;BME280;61342;51.442;7.370;2023-05-10T03:54:55;99336.72;;;15.54;100.00
71239;BME280;61342;51.442;7.370;2023-05-10T03:55:56;99333.94;;;15.63;100.00
71239;BME280;61342;51.442;7.370;2023-05-10T03:56:56;99329.88;;;15.66;100.00
71239;BME280;61342;51.442;7.370;2023-05-10T03:57:57;99328.13;;;15.70;100.00
71239;BME280;61342;51.442;7.370;2023-05-10T03:58:57;99331.78;;;15.71;100.00
71239;BME280;61342;51.442;7.370;2023-05-10T03:59:57;99326.78;;;15.71;100.00
71239;BME280;61342;51.442;7.370;2023-05-10T04:00:58;99336.22;;;15.72;100.00
71239;BME280;61342;51.442;7.370;2023-05-10T04:01:58;99339.72;;;15.70;100.00
71239;BME280;61342;51.442;7.370;2023-05-10T04:02:58;99340.31;;;15.69;100.00
71239;BME280;61342;51.442;7.370;2023-05-10T04:03:59;99324.06;;;15.66;100.00
71239;BME280;61342;51.442;7.370;2023-05-10T04:04:59;99337.44;;;15.61;100.00
71239;BME280;61342;51.442;7.370;2023-05-10T04:06:00;99336.47;;;15.59;100.00
71239;BME280;61342;51.442;7.370;2023-05-10T04:07:01;99337.66;;;15.56;100.00
71239;BME280;61342;51.442;7.370;2023-05-10T04:08:03;99335.75;;;15.51;100.00
71239;BME280;61342;51.442;7.370;2023-05-10T04:09:04;99342.72;;;15.48;100.00
71239;BME280;61342;51.442;7.370;2023-05-10T04:10:05;99330.41;;;15.40;100.00
71239;BME280;61342;51.442;7.370;2023-05-10T04:11:09;99327.31;;;15.38;100.00
71239;BME280;61342;51.442;7.370;2023-05-10T04:12:09;99326.94;;;15.34;100.00
71239;BME280;61342;51.442;7.370;2023-05-10T04:13:10;99327.91;;;15.29;100.00
71239;BME280;61342;51.442;7.370;2023-05-10T04:14:11;99332.19;;;15.28;100.00
71239;BME280;61342;51.442;7.370;2023-05-10T04:15:11;99334.72;;;15.24;100.00
71239;BME280;61342;51.442;7.370;2023-05-10T04:16:11;99334.09;;;15.18;100.00
71239;BME280;61342;51.442;7.370;2023-05-10T04:17:12;99337.00;;;15.18;100.00
71239;BME280;61342;51.442;7.370;2023-05-10T04:18:12;99327.78;;;15.12;100.00
71239;BME280;61342;51.442;7.370;2023-05-10T04:19:13;99334.91;;;15.11;100.00
71239;BME280;61342;51.442;7.370;2023-05-10T04:20:14;99335.50;;;15.10;100.00
71239;BME280;61342;51.442;7.370;2023-05-10T04:24:00;99329.78;;;14.88;100.00
71239;BME280;61342;51.442;7.370;2023-05-10T04:25:00;99337.50;;;14.85;100.00
71239;BME280;61342;51.442;7.370;2023-05-10T04:26:01;99341.34;;;14.80;100.00
71239;BME280;61342;51.442;7.370;2023-05-10T04:27:02;99342.53;;;14.77;100.00
71239;BME280;61342;51.442;7.370;2023-05-10T04:28:02;99342.31;;;14.75;100.00
71239;BME280;61342;51.442;7.370;2023-05-10T04:29:03;99347.13;;;14.73;100.00
71239;BME280;61342;51.442;7.370;2023-05-10T04:30:03;99347.13;;;14.73;100.00
71239;BME280;61342;51.442;7.370;2023-05-10T04:31:06;99340.59;;;14.72;100.00
71239;BME280;61342;51.442;7.370;2023-05-10T04:32:07;99349.06;;;14.70;100.00
71239;BME280;61342;51.442;7.370;2023-05-10T04:33:08;99334.63;;;14.63;100.00
71239;BME280;61342;51.442;7.370;2023-05-10T04:34:08;99341.75;;;14.69;100.00
71239;BME280;61342;51.442;7.370;2023-05-10T04:35:08;99342.91;;;14.66;100.00
71239;BME280;61342;51.442;7.370;2023-05-10T04:36:10;99340.41;;;14.63;100.00
71239;BME280;61342;51.442;7.370;2023-05-10T04:37:11;99344.84;;;14.64;100.00
71239;BME280;61342;51.442;7.370;2023-05-10T04:38:11;99341.00;;;14.61;100.00
71239;BME280;61342;51.442;7.370;2023-05-10T04:39:11;99342.13;;;14.58;100.00
71239;BME280;61342;51.442;7.370;2023-05-10T04:40:12;99343.88;;;14.61;100.00
71239;BME280;61342;51.442;7.370;2023-05-10T04:41:13;99339.44;;;14.60;100.00
71239;BME280;61342;51.442;7.370;2023-05-10T04:42:13;99347.75;;;14.64;100.00
71239;BME280;61342;51.442;7.370;2023-05-10T04:43:15;99342.72;;;14.72;100.00
71239;BME280;61342;51.442;7.370;2023-05-10T04:44:15;99341.56;;;14.82;100.00
71239;BME280;61342;51.442;7.370;2023-05-10T04:45:15;99344.78;;;14.94;100.00
71239;BME280;61342;51.442;7.370;2023-05-10T04:46:16;99341.31;;;15.02;100.00
71239;BME280;61342;51.442;7.370;2023-05-10T04:47:16;99349.75;;;15.15;100.00
71239;BME280;61342;51.442;7.370;2023-05-10T04:48:17;99339.34;;;15.20;100.00
71239;BME280;61342;51.442;7.370;2023-05-10T04:49:17;99344.34;;;15.27;100.00
71239;BME280;61342;51.442;7.370;2023-05-10T04:50:18;99351.28;;;15.31;100.00
71239;BME280;61342;51.442;7.370;2023-05-10T04:51:18;99345.50;;;15.31;100.00
71239;BME280;61342;51.442;7.370;2023-05-10T04:52:18;99348.97;;;15.30;100.00
71239;BME280;61342;51.442;7.370;2023-05-10T04:53:19;99353.97;;;15.29;100.00
71239;BME280;61342;51.442;7.370;2023-05-10T04:54:19;99350.91;;;15.27;100.00
71239;BME280;61342;51.442;7.370;2023-05-10T04:55:20;99357.28;;;15.26;100.00
71239;BME280;61342;51.442;7.370;2023-05-10T04:56:21;99357.88;;;15.24;100.00
71239;BME280;61342;51.442;7.370;2023-05-10T04:59:17;99359.81;;;15.07;100.00
71239;BME280;61342;51.442;7.370;2023-05-10T05:00:18;99357.13;;;15.01;100.00
71239;BME280;61342;51.442;7.370;2023-05-10T05:01:19;99363.31;;;14.98;100.00
71239;BME280;61342;51.442;7.370;2023-05-10T05:02:19;99366.41;;;14.93;100.00
71239;BME280;61342;51.442;7.370;2023-05-10T05:03:20;99365.47;;;14.90;100.00
71239;BME280;61342;51.442;7.370;2023-05-10T05:04:20;99371.03;;;14.88;100.00
71239;BME280;61342;51.442;7.370;2023-05-10T05:05:23;99367.19;;;14.86;100.00
71239;BME280;61342;51.442;7.370;2023-05-10T05:06:23;99364.88;;;14.84;100.00
71239;BME280;61342;51.442;7.370;2023-05-10T05:07:25;99360.25;;;14.81;100.00
71239;BME280;61342;51.442;7.370;2023-05-10T05:08:25;99371.44;;;14.77;100.00
71239;BME280;61342;51.442;7.370;2023-05-10T05:09:26;99363.91;;;14.74;100.00
71239;BME280;61342;51.442;7.370;2023-05-10T05:10:26;99367.78;;;14.77;100.00
71239;BME280;61342;51.442;7.370;2023-05-10T05:11:26;99369.16;;;14.76;100.00
71239;BME280;61342;51.442;7.370;2023-05-10T05:12:27;99378.38;;;14.74;100.00
71239;BME280;61342;51.442;7.370;2023-05-10T05:13:27;99379.16;;;14.75;100.00
71239;BME280;61342;51.442;7.370;2023-05-10T05:14:28;99374.56;;;14.72;100.00
71239;BME280;61342;51.442;7.370;2023-05-10T05:15:28;99377.06;;;14.68;100.00
71239;BME280;61342;51.442;7.370;2023-05-10T05:16:30;99381.47;;;14.69;100.00
71239;BME280;61342;51.442;7.370;2023-05-10T05:17:31;99390.16;;;14.69;100.00
71239;BME280;61342;51.442;7.370;2023-05-10T05:18:31;99382.63;;;14.66;100.00
71239;BME280;61342;51.442;7.370;2023-05-10T05:19:32;99388.81;;;14.62;100.00
71239;BME280;61342;51.442;7.370;2023-05-10T05:20:33;99386.88;;;14.65;100.00
71239;BME280;61342;51.442;7.370;2023-05-10T05:21:34;99373.41;;;14.60;100.00
71239;BME280;61342;51.442;7.370;2023-05-10T05:22:36;99376.47;;;14.62;100.00
71239;BME280;61342;51.442;7.370;2023-05-10T05:23:36;99376.47;;;14.62;100.00
71239;BME280;61342;51.442;7.370;2023-05-10T05:24:37;99382.25;;;14.62;100.00
71239;BME280;61342;51.442;7.370;2023-05-10T05:25:38;99378.59;;;14.61;100.00
71239;BME280;61342;51.442;7.370;2023-05-10T05:29:08;99391.13;;;14.49;100.00
71239;BME280;61342;51.442;7.370;2023-05-10T05:30:08;99383.41;;;14.44;100.00
71239;BME280;61342;51.442;7.370;2023-05-10T05:31:09;99368.00;;;14.34;100.00
71239;BME280;61342;51.442;7.370;2023-05-10T05:32:10;99382.47;;;14.42;100.00
71239;BME280;61342;51.442;7.370;2023-05-10T05:33:11;99391.69;;;14.40;100.00
71239;BME280;61342;51.442;7.370;2023-05-10T05:34:11;99386.88;;;14.42;100.00
71239;BME280;61342;51.442;7.370;2023-05-10T05:35:12;99386.50;;;14.46;100.00
71239;BME280;61342;51.442;7.370;2023-05-10T05:36:12;99391.34;;;14.51;100.00
71239;BME280;61342;51.442;7.370;2023-05-10T05:37:14;99389.59;;;14.63;100.00
71239;BME280;61342;51.442;7.370;2023-05-10T05:38:15;99389.19;;;14.74;100.00
71239;BME280;61342;51.442;7.370;2023-05-10T05:39:15;99381.06;;;14.87;100.00
71239;BME280;61342;51.442;7.370;2023-05-10T05:40:16;99384.13;;;14.97;100.00
71239;BME280;61342;51.442;7.370;2023-05-10T05:41:16;99389.91;;;15.11;100.00
71239;BME280;61342;51.442;7.370;2023-05-10T05:42:16;99378.34;;;15.11;100.00
71239;BME280;61342;51.442;7.370;2023-05-10T05:43:18;99385.09;;;15.21;100.00
71239;BME280;61342;51.442;7.370;2023-05-10T05:44:19;99388.56;;;15.27;100.00
71239;BME280;61342;51.442;7.370;2023-05-10T05:45:19;99390.28;;;15.30;100.00
71239;BME280;61342;51.442;7.370;2023-05-10T05:46:20;99387.97;;;15.29;100.00
71239;BME280;61342;51.442;7.370;2023-05-10T05:47:20;99393.38;;;15.32;100.00
71239;BME280;61342;51.442;7.370;2023-05-10T05:48:21;99392.59;;;15.32;100.00
71239;BME280;61342;51.442;7.370;2023-05-10T05:49:21;99393.38;;;15.32;100.00
71239;BME280;61342;51.442;7.370;2023-05-10T05:50:22;99393.38;;;15.32;100.00
71239;BME280;61342;51.442;7.370;2023-05-10T05:51:22;99386.41;;;15.28;100.00